GOSP

Podor Airport

Podor, Senegal
METAR GOSP 271100Z 04004KT CAVOK 36/12 Q1011
Observed Flight Rules
May-27 @ 11:00 UTC (an hour ago) Visual Flight Rules
Wind Visibility Clouds
40° at 4 knots 10,000+ meters
  • Clear skies
Temperatures Readings
Current 36°C / 97°F
Dewpoint 12°C / 54°F
Humidity 23%
Altimeter 29.85" Hg
Pressure 1011 hPa
Elevation 7
METAR GOSP 271100Z 04004KT CAVOK 36/12 Q1011
Observed Flight Rules
May-27 @ 11:00 UTC
(an hour ago)
VFR
Wind Visibility
40° at 4 knots 10,000+ meters
Clouds
  • Clear skies
Temperature Dewpoint
36°C / 97°F 12°C / 54°F
Humidity Altimeter Pressure
23% 29.85" Hg 1011 hPa